Date,TemperatureHighF,TemperatureAvgF,TemperatureLowF,DewpointHighF,DewpointAvgF,DewpointLowF,HumidityHigh,HumidityAvg,HumidityLow,PressureMaxIn,PressureMinIn,WindSpeedMaxMPH,WindSpeedAvgMPH,GustSpeedMaxMPH,PrecipitationSumIn
2013-1-1,39.9,35.7,26.9,30.0,23.4,13.0,69,61,54,29.92,29.75,23,13,30,0.00
2013-1-2,30.7,26.2,21.4,18.0,13.7,8.0,68,60,54,30.08,29.91,20,11,27,0.00
2013-1-3,29.3,20.8,13.0,19.0,8.4,2.0,70,59,41,30.13,30.02,21,9,24,0.00
2013-1-4,38.2,34.6,28.4,30.0,25.0,19.0,75,68,55,30.01,29.85,22,11,30,0.00
2013-1-5,42.2,36.6,30.3,28.0,25.5,23.0,82,65,50,30.27,29.89,20,8,28,0.00
2013-1-6,41.3,36.2,29.7,36.0,32.1,25.0,92,85,71,30.23,29.95,16,4,24,0.03
2013-1-7,40.1,35.7,28.8,34.0,30.3,27.0,96,81,63,30.41,29.98,15,6,21,0.00
2013-1-8,46.1,42.1,31.7,38.0,35.2,30.0,92,77,65,30.40,30.31,25,9,31,0.00
2013-1-9,50.0,42.3,31.8,46.0,38.7,31.0,96,87,75,30.39,30.03,27,6,30,0.00
2013-1-10,45.9,42.5,37.2,38.0,28.8,25.0,74,59,49,30.50,30.09,24,10,31,0.00
2013-1-11,41.1,37.7,33.4,39.0,32.4,27.0,94,81,67,30.50,30.21,10,3,15,0.15
2013-1-12,42.7,41.1,39.5,42.0,40.2,38.0,97,96,94,30.21,30.12,9,3,13,0.09
2013-1-13,53.3,47.7,42.3,53.0,47.1,42.0,98,97,93,30.17,30.04,12,4,19,0.02
2013-1-14,56.1,51.4,44.0,54.0,47.8,35.0,98,88,62,30.24,29.93,16,8,27,0.00
2013-1-15,43.1,39.4,37.9,37.0,35.3,33.0,92,85,77,30.28,30.20,13,5,18,0.17
2013-1-16,40.7,38.6,36.3,40.0,37.3,34.0,97,95,81,30.22,29.71,16,6,17,0.61
2013-1-17,41.5,39.0,35.6,37.0,32.2,27.0,94,77,64,30.06,29.86,18,7,20,0.00
2013-1-18,34.8,25.5,20.9,29.0,11.0,0.0,95,57,35,30.49,30.01,26,12,33,0.00
2013-1-19,48.5,41.5,24.3,45.0,33.1,14.0,87,72,64,30.43,29.95,29,12,37,0.00
2013-1-20,51.0,46.9,32.5,46.0,36.9,16.0,90,69,49,29.95,29.61,27,15,39,0.00
2013-1-21,32.2,28.6,26.2,30.0,17.6,9.0,95,66,45,30.11,29.76,23,7,25,0.00
2013-1-22,28.8,23.6,17.6,28.0,12.2,-2.0,95,65,34,30.08,29.72,24,10,34,0.00
2013-1-23,17.4,14.6,11.5,6.0,-0.2,-5.0,66,52,45,30.16,30.06,25,14,31,0.00
2013-1-24,20.4,14.5,8.9,2.0,-1.3,-4.0,63,50,36,30.23,30.05,26,16,36,0.00
2013-1-25,25.8,19.3,13.6,19.0,4.6,-4.0,90,54,44,30.32,30.04,21,9,33,0.00
2013-1-26,25.4,20.7,17.5,18.0,10.7,0.0,90,68,41,30.22,29.98,22,11,34,0.00
2013-1-27,30.5,23.4,17.2,10.0,7.2,4.0,66,51,36,30.46,30.22,24,13,33,0.00
2013-1-28,34.2,29.0,22.1,33.0,18.9,7.0,96,68,44,30.46,29.99,10,3,13,0.07
2013-1-29,38.4,34.8,32.4,37.0,33.7,31.0,97,95,93,30.20,29.98,7,2,9,0.09
2013-1-30,57.6,49.7,38.2,55.0,48.2,37.0,98,94,90,30.16,29.57,27,10,34,0.02
2013-1-31,56.8,48.0,34.4,56.0,39.9,15.0,97,75,45,29.63,29.10,33,19,45,0.00
2013-2-1,34.1,30.3,25.0,19.0,13.4,8.0,60,50,41,30.11,29.63,25,13,36,0.00
2013-2-2,32.6,26.8,22.7,28.0,14.6,7.0,93,60,49,30.27,30.05,21,10,29,0.00
2013-2-3,32.1,27.5,24.3,27.0,22.9,19.0,93,83,72,30.05,29.69,17,8,24,0.00
2013-2-4,29.9,27.9,26.0,23.0,14.4,10.0,89,58,44,29.95,29.72,22,12,29,0.00
2013-2-5,30.6,27.0,24.7,29.0,19.5,8.0,94,75,45,30.03,29.91,19,7,23,0.00
2013-2-6,37.6,33.3,30.1,31.0,25.9,11.0,95,77,45,30.28,29.89,15,6,24,0.01
2013-2-7,29.8,27.0,24.8,25.0,12.7,6.0,82,56,40,30.52,30.28,14,8,21,0.00
2013-2-8,33.9,32.9,29.8,33.0,29.3,25.0,96,87,79,30.46,29.84,28,13,34,0.12
2013-2-11,44.4,40.6,34.2,43.0,37.9,31.0,96,90,85,30.23,29.82,21,10,26,0.22
2013-2-12,43.6,40.1,35.4,34.0,30.5,28.0,80,69,58,29.90,29.73,19,9,24,0.00
2013-2-13,38.9,35.1,30.8,32.0,26.1,24.0,91,70,57,29.89,29.65,12,5,17,0.00
2013-2-14,41.1,34.0,30.3,31.0,29.2,26.0,96,83,59,30.03,29.68,14,6,20,0.02
2013-2-15,46.6,38.7,30.4,39.0,35.0,29.0,95,87,66,30.05,29.95,18,6,23,0.01
2013-2-16,38.9,34.5,32.4,37.0,32.9,31.0,96,93,85,29.95,29.62,21,8,28,0.10
2013-2-17,34.6,25.2,19.2,32.0,17.4,6.0,93,74,45,29.68,29.33,37,22,45,0.00
2013-2-18,30.7,24.7,18.1,13.0,7.2,5.0,61,48,34,30.18,29.68,35,17,45,0.00
2013-2-19,47.5,40.2,30.1,46.0,32.6,13.0,95,75,47,30.18,29.61,19,7,29,0.64
2013-2-20,44.6,34.3,27.6,43.0,22.7,12.0,95,64,44,29.81,29.57,22,13,31,0.00
2013-2-21,33.9,29.2,26.5,20.0,16.6,14.0,68,60,50,30.13,29.78,23,14,34,0.00
2013-2-22,35.7,32.9,29.1,29.0,25.4,20.0,79,74,68,30.36,30.13,21,10,28,0.00
2013-2-23,38.1,35.7,33.1,37.0,31.8,28.0,96,86,76,30.34,29.83,14,5,20,0.41
2013-2-24,41.7,37.4,31.8,41.0,36.8,31.0,98,97,96,29.85,29.57,27,12,28,0.65
2013-2-25,39.5,33.6,30.7,32.0,30.4,28.0,97,89,64,30.25,29.85,13,7,17,0.04
2013-2-26,39.8,35.3,28.4,36.0,30.4,27.0,96,83,61,30.33,30.12,14,4,16,0.00
2013-2-27,44.3,41.4,38.5,44.0,40.4,35.0,98,96,88,30.11,29.56,23,10,32,0.24
2013-2-28,43.7,40.1,38.4,41.0,38.1,37.0,97,92,81,29.64,29.50,11,3,17,0.02
2013-3-1,40.4,37.9,36.3,37.0,34.2,32.0,96,86,73,29.67,29.50,15,6,21,0.00
2013-3-2,39.7,37.1,35.0,32.0,29.6,27.0,82,74,64,29.68,29.62,14,7,18,0.00
2013-3-3,37.5,35.8,33.4,32.0,29.2,27.0,90,77,68,29.63,29.57,11,6,15,0.00
2013-3-4,39.1,35.2,31.2,30.0,26.2,24.0,90,70,58,29.71,29.57,19,12,25,0.00
2013-3-5,40.6,36.5,33.4,35.0,30.6,26.0,93,79,70,30.05,29.71,17,10,24,0.00
2013-3-6,39.4,38.1,35.9,36.0,35.0,34.0,95,88,82,30.03,29.89,37,17,46,0.00
2013-3-7,37.3,35.5,34.3,35.0,34.4,34.0,97,96,91,29.89,29.83,43,30,50,0.00
2013-3-8,40.1,35.4,33.4,37.0,33.6,32.0,98,94,75,30.04,29.82,36,26,45,0.00
2013-3-9,39.4,37.0,36.0,34.0,32.5,32.0,89,84,75,30.31,30.04,34,21,39,0.00
2013-3-10,40.1,37.3,35.0,34.0,32.8,32.0,91,83,77,30.39,30.31,18,8,23,0.00
2013-3-11,47.5,41.5,35.2,43.0,38.0,32.0,91,87,79,30.34,30.18,10,4,17,0.00
2013-3-12,53.5,49.7,44.5,51.0,47.6,42.0,97,92,87,30.19,29.75,23,11,31,0.40
2013-3-13,53.6,44.5,38.4,53.0,37.3,28.0,97,77,55,29.79,29.69,16,7,21,0.35
2013-3-14,38.5,33.8,26.9,30.0,21.5,11.0,76,61,46,29.84,29.71,24,10,34,0.00
2013-3-15,38.7,31.0,24.4,33.0,18.9,11.0,79,61,43,29.88,29.68,21,12,33,0.00
2013-3-16,38.4,34.9,32.8,30.0,20.8,8.0,81,58,29,29.87,29.70,17,7,26,0.00
2013-3-17,37.8,34.2,30.7,29.0,20.0,10.0,84,58,34,30.29,29.87,17,7,20,0.00
2013-3-18,34.1,30.4,24.9,28.0,18.5,10.0,84,62,46,30.44,30.23,20,9,22,0.00
2013-3-19,45.8,37.9,32.2,45.0,36.1,28.0,98,93,78,30.22,29.48,26,12,32,0.48
2013-3-20,39.3,34.7,31.7,31.0,24.6,19.0,89,68,51,29.83,29.67,24,12,32,0.00
2013-3-21,37.7,33.6,29.7,31.0,28.8,26.0,97,83,66,29.83,29.57,20,10,24,0.00
2013-3-22,38.6,33.6,27.9,30.0,25.1,19.0,97,73,49,29.75,29.59,18,10,25,0.00
2013-3-23,42.2,37.2,32.7,26.0,23.4,20.0,74,58,42,29.79,29.66,27,14,34,0.00
2013-3-24,42.4,37.4,34.0,31.0,25.6,23.0,86,63,46,29.84,29.74,19,8,22,0.00
2013-3-25,42.4,38.0,32.5,36.0,32.6,30.0,92,81,69,29.76,29.44,31,12,34,0.02
2013-3-26,45.6,39.5,34.4,35.0,30.6,23.0,92,72,45,29.78,29.44,26,11,30,0.00
2013-3-27,48.3,41.9,35.1,36.0,29.2,25.0,81,62,43,29.85,29.74,17,8,22,0.00
2013-3-28,43.7,40.9,37.8,37.0,34.8,32.0,93,79,64,30.02,29.84,18,9,19,0.00
2013-3-29,52.3,44.2,39.7,36.0,32.0,-99.9,82,67,50,30.04,29.99,15,-14,19,0.00
2013-3-30,51.2,45.0,41.8,37.0,33.5,27.0,79,65,40,30.10,30.02,12,6,15,0.00
2013-3-31,54.1,45.9,34.6,44.0,35.4,30.0,91,68,41,30.13,29.77,21,6,28,0.05
2013-4-1,53.9,46.5,38.7,47.0,40.4,17.0,97,81,40,29.79,29.58,22,13,34,0.15
2013-4-2,40.9,36.4,33.2,22.0,17.9,14.0,55,47,35,29.98,29.80,24,13,37,0.00
2013-4-3,44.0,37.3,33.1,23.0,17.4,15.0,54,45,34,30.16,29.96,22,14,33,0.00
2013-4-4,43.4,37.8,33.4,34.0,23.7,17.0,81,58,40,30.31,30.11,20,11,29,0.00
2013-4-5,51.2,42.7,39.8,44.0,37.5,30.0,92,82,52,30.10,29.65,12,5,24,0.09
2013-4-6,44.0,38.6,35.5,31.0,21.1,8.0,75,51,24,30.35,29.87,22,9,29,0.00
2013-4-7,47.5,43.2,31.3,44.0,34.4,23.0,92,73,40,30.34,30.07,23,9,27,0.00
2013-4-8,60.3,50.6,46.3,46.0,43.6,40.0,92,78,52,30.12,29.99,21,6,23,0.00
2013-4-9,67.2,52.3,46.6,52.0,46.8,41.0,96,82,50,30.10,29.85,22,8,26,0.00
2013-4-10,53.9,46.8,44.8,47.0,43.8,43.0,94,89,76,30.00,29.86,17,6,33,0.12
2013-4-11,48.9,45.3,43.8,45.0,41.7,38.0,97,87,71,30.12,29.80,18,7,22,0.07
2013-4-12,43.9,42.4,38.6,42.0,37.4,31.0,97,83,61,30.14,29.68,23,13,33,0.83
2013-4-13,49.4,42.3,39.1,41.0,39.0,37.0,97,88,68,29.96,29.68,27,10,31,0.01
2013-4-14,52.2,47.5,43.9,42.0,37.6,30.0,88,70,48,30.21,29.95,17,8,24,0.00
2013-4-15,51.4,45.2,41.1,40.0,36.5,32.0,91,72,58,30.42,30.21,12,4,14,0.00
2013-4-16,54.9,48.5,39.3,49.0,43.0,38.0,95,82,67,30.43,30.14,23,9,30,0.00
2013-4-17,57.1,52.0,42.8,53.0,45.5,38.0,95,79,55,30.33,30.10,20,7,34,0.04
2013-4-18,56.5,48.5,39.4,48.0,40.0,33.0,95,74,42,30.41,30.18,16,6,21,0.00
2013-4-19,65.4,58.8,51.5,61.0,56.8,48.0,97,93,85,30.17,29.76,23,13,35,0.01
2013-4-20,60.1,52.5,47.3,59.0,47.1,36.0,97,82,55,30.19,29.70,22,11,39,0.21
2013-4-21,48.8,43.0,38.9,39.0,28.8,23.0,71,58,48,30.67,30.20,21,9,27,0.00
2013-4-22,46.9,43.7,41.5,39.0,35.0,30.0,80,72,56,30.71,30.55,21,12,24,0.00
2013-4-23,45.8,44.2,41.9,45.0,42.4,37.0,97,93,80,30.54,29.98,29,17,30,0.05
2013-4-24,56.9,48.4,43.0,49.0,44.8,42.0,97,88,69,29.98,29.84,32,15,33,0.00
2013-4-25,55.7,35.3,42.4,53.0,3.7,-99.9,96,62,69,30.24,29.91,19,-76,28,0.01
2013-4-26,53.7,48.3,41.1,44.0,41.8,37.0,94,79,66,30.42,30.25,9,3,11,0.00
2013-4-27,57.6,49.3,40.5,45.0,39.1,30.0,96,71,36,30.42,30.33,10,3,12,0.01
2013-4-28,60.4,50.7,41.1,47.0,42.5,37.0,94,75,43,30.36,30.28,12,4,14,0.00
2013-4-29,61.2,52.7,45.7,46.0,37.3,21.0,94,63,22,30.29,30.24,9,3,13,0.00
2013-4-30,57.9,50.4,40.8,46.0,37.3,29.0,92,64,33,30.36,30.26,9,2,11,0.00
2013-5-1,55.7,50.5,45.5,49.0,46.2,43.0,94,85,72,30.47,30.36,12,4,14,0.00
2013-5-2,63.2,52.6,43.8,48.0,45.2,42.0,96,78,52,30.46,30.37,14,4,18,0.00
2013-5-3,50.2,47.8,45.0,45.0,43.3,41.0,92,84,79,30.47,30.36,23,14,30,0.00
2013-5-4,50.7,47.9,44.6,45.0,42.2,40.0,93,81,68,30.35,30.30,25,12,26,0.00
2013-5-5,52.9,48.0,45.1,45.0,43.2,40.0,93,83,64,30.30,30.26,17,9,18,0.00
2013-5-6,55.6,47.9,43.9,50.0,45.8,43.0,97,92,81,30.29,30.18,9,3,9,0.00
2013-5-7,69.4,56.5,46.3,60.0,53.4,46.0,98,90,67,30.20,30.14,9,4,14,0.00
2013-5-8,64.5,59.5,55.6,61.0,57.3,54.0,97,92,86,30.20,30.05,13,4,21,0.01
2013-5-9,66.0,57.7,52.8,61.0,56.1,52.0,98,94,77,30.05,29.88,11,4,15,0.01
2013-5-10,73.7,61.4,54.1,57.0,54.6,52.0,98,80,49,29.98,29.90,14,6,19,0.00
2013-5-11,65.3,59.7,55.4,62.0,57.7,54.0,98,93,76,29.96,29.73,22,9,33,0.39
2013-5-12,64.5,59.0,55.0,59.0,53.6,41.0,98,84,54,29.82,29.62,20,9,28,0.20
2013-5-13,55.1,52.0,48.4,42.0,36.1,32.0,72,55,43,30.00,29.83,23,10,31,0.00
2013-5-14,53.3,50.0,45.3,44.0,37.0,31.0,80,62,44,30.05,29.98,19,10,23,0.00
2013-5-15,59.6,54.2,47.8,55.0,46.9,38.0,93,78,46,30.07,29.70,22,9,31,0.00
2013-5-16,72.7,63.0,52.2,54.0,48.2,42.0,95,62,33,29.79,29.67,22,11,27,0.00
2013-5-17,61.7,57.5,51.0,50.0,46.3,41.0,86,67,49,30.21,29.79,13,6,18,0.00
2013-5-18,65.1,56.6,46.3,53.0,48.3,44.0,93,75,49,30.32,30.22,12,6,19,0.00
2013-5-19,66.0,58.5,49.9,55.0,49.6,47.0,94,74,51,30.36,30.24,15,5,17,0.06
2013-5-20,67.5,61.4,56.2,63.0,59.2,55.0,97,92,83,30.23,29.95,16,9,23,0.08
2013-5-21,76.7,63.8,55.3,68.0,60.7,54.0,98,90,72,29.98,29.86,20,6,26,0.00
2013-5-22,68.2,59.8,53.0,64.0,57.6,52.0,97,92,83,29.96,29.90,18,6,20,0.00
2013-5-23,69.4,65.0,60.1,65.0,62.7,59.0,98,92,85,29.96,29.87,24,14,32,0.09
2013-5-24,64.1,61.1,54.6,63.0,60.6,54.0,99,98,97,29.87,29.68,28,9,36,0.88
2013-5-25,54.3,50.8,43.7,54.0,49.0,42.0,98,93,87,29.76,29.67,19,10,26,0.31
2013-5-26,57.4,50.9,43.7,45.0,41.2,39.0,92,70,52,30.11,29.73,21,13,30,0.00
2013-5-27,64.7,57.5,49.6,47.0,43.8,41.0,85,62,43,30.17,30.10,24,11,25,0.00
2013-5-28,69.2,59.2,48.5,56.0,51.0,43.0,94,75,48,30.25,30.17,12,4,13,0.00
2013-5-29,65.9,59.9,56.5,62.0,58.1,55.0,97,94,87,30.22,30.04,16,8,26,0.47
2013-5-30,81.7,69.9,60.5,69.0,63.4,59.0,95,80,61,30.09,30.02,17,9,22,0.13
2013-5-31,86.7,73.8,62.5,67.0,63.5,60.0,91,71,42,30.09,29.98,19,7,24,0.00
2013-6-1,80.3,70.7,63.7,68.0,63.6,60.0,91,79,60,30.00,29.93,21,10,27,0.00
2013-6-2,73.0,67.1,63.8,67.0,63.2,61.0,94,87,78,29.95,29.84,26,13,35,0.00
2013-6-3,67.6,64.3,61.8,66.0,63.1,61.0,98,96,93,29.87,29.80,29,9,29,0.79
2013-6-4,68.7,61.9,55.6,61.0,50.0,44.0,98,67,45,30.06,29.79,17,7,23,0.00
2013-6-5,67.8,61.3,55.4,55.0,49.7,45.0,93,68,45,30.20,30.06,11,5,14,0.00
2013-6-6,68.7,61.4,54.5,57.0,53.1,48.0,93,75,50,30.20,30.08,12,5,16,0.00
2013-6-7,66.3,59.4,57.0,66.0,57.6,54.0,98,94,79,30.08,29.75,17,9,30,1.54
2013-6-8,69.3,64.6,58.6,66.0,61.9,58.0,98,91,76,30.00,29.54,22,12,33,0.00
2013-6-9,72.9,67.6,61.4,61.0,58.6,56.0,95,74,55,30.16,30.00,19,8,20,0.00
2013-6-10,68.1,63.5,59.7,61.0,59.2,58.0,96,86,74,30.19,29.98,13,4,18,0.56
2013-6-11,72.4,66.0,59.9,68.0,64.0,59.0,98,93,83,29.97,29.55,20,10,24,0.74
2013-6-12,69.3,64.1,58.9,59.0,56.7,54.0,95,77,62,29.80,29.57,18,10,26,0.00
2013-6-13,65.8,60.9,55.7,58.0,55.6,54.0,96,83,68,29.82,29.59,20,6,30,0.17
2013-6-14,64.5,57.7,53.4,57.0,53.4,51.0,97,86,65,29.75,29.52,34,17,38,0.02
2013-6-15,74.0,67.4,61.4,58.0,53.0,43.0,87,62,34,29.96,29.75,14,8,19,0.00
2013-6-16,74.6,66.7,59.0,62.0,57.6,49.0,94,75,42,29.96,29.77,16,7,25,0.00
2013-6-17,78.1,69.6,63.4,66.0,63.2,61.0,92,81,59,29.92,29.79,17,7,22,0.04
2013-6-18,75.3,66.0,60.3,67.0,62.2,59.0,95,88,62,29.92,29.85,20,5,21,0.01
2013-6-19,68.1,64.4,60.2,61.0,55.5,51.0,95,74,56,30.15,29.83,21,9,24,0.03
2013-6-20,71.8,64.9,57.6,60.0,56.2,52.0,88,74,53,30.28,30.16,12,6,19,0.00
2013-6-21,72.9,66.4,58.1,56.0,52.8,50.0,89,64,46,30.29,30.23,19,9,21,0.00
2013-6-22,74.8,67.5,62.4,63.0,57.7,51.0,94,73,47,30.26,30.16,14,7,20,0.00
2013-6-23,78.0,70.8,63.3,70.0,66.0,62.0,95,85,69,30.19,30.06,22,8,25,0.00
2013-6-24,82.9,74.6,68.0,73.0,69.7,67.0,97,85,69,30.06,29.89,19,11,23,0.00
2013-6-25,84.7,75.6,69.2,71.0,67.5,64.0,90,76,59,29.92,29.76,21,8,21,0.01
2013-6-26,82.1,75.1,69.8,71.0,68.9,67.0,93,81,68,29.83,29.73,19,7,27,0.00
2013-6-27,72.8,68.5,66.6,70.0,66.9,65.0,97,94,89,29.83,29.75,10,3,14,0.00
2013-6-28,72.5,68.9,67.5,71.0,68.3,67.0,98,97,94,29.75,29.56,18,11,25,0.17
2013-6-29,72.5,69.2,68.0,70.0,68.1,67.0,99,96,89,29.77,29.55,16,9,24,0.05
2013-6-30,75.2,69.8,67.6,70.0,68.2,67.0,98,94,78,29.98,29.76,15,7,20,0.01
2013-7-1,75.7,71.2,68.4,72.0,69.5,67.0,97,94,87,30.12,29.97,17,9,28,0.10
2013-7-2,77.5,72.4,69.3,73.0,70.5,68.0,97,93,87,30.22,30.11,13,8,21,0.04
2013-7-3,79.0,75.0,71.2,74.0,71.8,70.0,97,90,80,30.24,30.19,18,11,23,0.00
2013-7-4,81.0,75.0,70.5,75.0,72.2,70.0,98,91,80,30.23,30.14,23,12,25,0.00
2013-7-5,84.2,76.8,71.5,75.0,71.8,69.0,94,85,68,30.18,30.08,19,12,25,0.00
2013-7-6,83.5,77.4,72.8,75.0,72.6,70.0,92,85,72,30.09,29.97,16,10,23,0.00
2013-7-7,86.5,79.4,72.8,76.0,72.7,70.0,94,81,61,30.02,29.91,21,6,21,0.00
2013-7-8,82.6,76.7,72.1,73.0,70.8,69.0,95,82,68,30.03,29.92,22,9,22,0.00
2013-7-9,75.9,72.2,69.5,71.0,70.0,68.0,96,93,83,30.08,30.02,9,4,12,0.00
2013-7-10,79.7,75.5,71.4,74.0,73.1,70.0,97,92,79,30.06,29.83,17,8,25,0.00
2013-7-11,76.1,73.7,71.2,74.0,72.0,69.0,98,94,88,29.90,29.81,17,7,24,0.25
2013-7-12,71.4,69.9,68.2,71.0,68.4,66.0,98,95,89,30.16,29.89,18,10,20,0.00
2013-7-13,75.3,70.2,67.8,72.0,69.1,67.0,98,96,89,30.30,30.16,12,4,12,0.32
2013-7-14,82.3,75.9,70.3,77.0,73.0,70.0,99,91,79,30.30,30.19,15,4,21,0.10
2013-7-15,86.7,78.9,74.2,76.0,73.9,72.0,95,85,64,30.19,30.09,8,3,10,0.00
2013-7-16,87.1,79.2,73.3,73.0,71.7,70.0,94,78,61,30.15,30.07,7,3,10,0.00
2013-7-17,85.7,77.2,70.5,73.0,69.5,67.0,93,78,59,30.18,30.04,10,3,12,0.00
2013-7-18,85.8,79.7,74.4,76.0,73.4,70.0,97,81,66,30.04,29.96,14,6,17,0.00
2013-7-19,88.4,81.5,75.9,79.0,76.1,74.0,97,84,69,29.95,29.78,23,10,27,0.00
2013-7-20,84.3,80.4,75.1,76.0,75.0,73.0,93,84,70,29.80,29.68,23,12,31,0.00
2013-7-21,79.9,73.9,68.9,73.0,69.1,65.0,93,85,70,29.98,29.79,7,3,10,0.47
2013-7-22,74.8,71.9,69.2,71.0,69.3,67.0,98,92,85,29.99,29.87,9,4,11,0.00
2013-7-23,80.9,76.1,70.7,76.0,73.8,70.0,98,93,83,29.87,29.56,23,7,27,0.00
2013-7-24,83.8,77.2,72.2,73.0,70.6,66.0,94,81,56,29.89,29.58,16,6,16,0.00
2013-7-25,73.8,66.6,64.3,67.0,62.7,59.0,95,87,75,30.03,29.89,24,19,31,0.00
2013-7-26,69.6,66.8,64.4,68.0,65.6,63.0,98,96,92,30.02,29.86,25,13,28,0.21
2013-7-27,78.0,71.4,65.9,70.0,67.3,64.0,95,87,69,30.07,30.00,14,7,17,0.00
2013-7-28,78.7,72.6,70.1,73.0,70.6,69.0,97,93,81,30.02,29.93,12,4,16,0.21
2013-7-29,80.0,73.4,68.6,75.0,70.6,67.0,96,91,78,30.04,29.98,11,5,16,0.00
2013-7-30,77.4,72.4,68.9,69.0,63.9,59.0,94,76,55,30.09,30.01,15,7,18,0.00
2013-7-31,77.2,71.5,66.6,66.0,63.1,56.0,94,76,49,30.12,30.06,11,5,13,0.00
2013-8-1,77.2,70.5,66.5,69.0,65.9,62.0,96,86,62,30.06,29.89,11,4,14,0.03
2013-8-2,77.2,71.4,66.5,70.0,66.7,63.0,95,85,70,29.90,29.80,18,6,24,0.12
2013-8-3,73.1,70.8,68.5,69.0,66.3,64.0,93,86,74,29.89,29.81,17,8,20,0.03
2013-8-4,76.1,70.7,67.0,67.0,61.1,57.0,92,72,56,29.86,29.77,16,6,22,0.00
2013-8-5,73.1,67.3,63.9,62.0,56.2,48.0,83,68,42,30.03,29.86,16,8,22,0.00
2013-8-6,75.4,68.0,59.5,59.0,55.6,49.0,88,67,41,30.16,30.03,9,3,11,0.00
2013-8-7,74.9,67.6,59.7,64.0,57.8,51.0,95,73,44,30.18,30.14,13,3,13,0.00
2013-8-8,77.3,71.1,63.5,70.0,66.6,60.0,94,86,70,30.14,30.05,18,6,22,0.03
2013-8-9,75.0,73.3,71.3,73.0,71.4,70.0,95,93,90,30.08,29.80,28,11,32,0.01
2013-8-10,78.8,74.1,71.0,72.0,66.3,61.0,97,78,56,30.01,29.80,19,8,23,0.00
2013-8-11,74.5,69.9,65.1,61.0,57.3,49.0,85,66,45,30.08,30.00,17,6,18,0.00
2013-8-12,73.9,69.4,64.7,69.0,65.7,61.0,97,88,78,30.05,29.93,10,4,15,0.01
2013-8-13,69.3,68.0,65.9,68.0,67.0,65.0,98,96,93,29.93,29.68,13,3,17,0.41
2013-8-14,71.9,68.3,65.2,66.0,58.8,53.0,97,73,54,29.94,29.67,20,7,24,0.00
2013-8-15,72.3,67.1,63.5,59.0,54.3,47.0,81,65,42,30.12,29.95,13,6,19,0.00
2013-8-16,75.4,69.2,63.7,64.0,59.8,50.0,92,74,43,30.20,30.11,13,5,17,0.00
2013-8-17,76.2,69.2,63.2,65.0,62.4,60.0,96,80,60,30.27,30.20,7,2,8,0.00
2013-8-18,74.2,67.6,61.9,66.0,61.5,58.0,94,81,63,30.27,30.08,8,2,9,0.12
2013-8-19,75.1,68.2,59.1,66.0,62.6,57.0,94,82,70,30.09,29.96,16,6,21,0.00
2013-8-20,80.8,73.4,67.7,69.0,65.4,63.0,92,77,59,30.09,29.98,13,5,16,0.00
2013-8-21,82.5,74.9,68.7,70.0,65.9,63.0,87,74,52,30.14,30.05,11,6,16,0.00
2013-8-22,77.2,72.9,69.9,71.0,69.8,68.0,96,90,80,30.06,29.86,16,9,21,0.00
2013-8-23,73.1,70.8,67.8,71.0,64.1,57.0,98,80,60,30.08,29.82,22,9,23,0.00
2013-8-24,69.4,66.6,57.2,63.0,55.8,47.0,86,69,47,30.33,30.08,21,9,22,0.00
2013-8-25,76.9,67.5,57.1,61.0,56.6,46.0,94,71,34,30.36,30.22,11,4,17,0.00
2013-8-26,72.5,70.0,67.3,67.0,64.2,58.0,90,82,71,30.22,29.90,21,10,30,0.00
2013-8-27,71.1,69.4,68.2,69.0,68.2,67.0,97,96,90,29.90,29.82,12,4,18,1.00
2013-8-28,75.6,68.9,65.9,70.0,67.2,65.0,98,94,81,29.93,29.84,9,3,11,0.00
2013-8-29,68.4,66.3,63.1,67.0,64.2,60.0,96,93,88,30.03,29.93,20,13,23,0.00
2013-8-30,72.2,66.6,62.3,68.0,63.2,59.0,94,88,83,30.00,29.86,15,8,20,0.00
2013-8-31,76.7,71.8,68.8,71.0,69.5,67.0,95,92,83,29.87,29.83,19,10,27,0.00
2013-9-1,77.4,73.5,70.9,73.0,71.4,70.0,96,92,86,29.90,29.84,16,8,25,0.01
2013-9-2,80.1,73.7,71.3,75.0,71.8,70.0,98,94,83,29.87,29.73,12,6,25,0.00
2013-9-3,79.4,71.2,67.8,74.0,69.7,66.0,98,95,82,29.82,29.70,12,4,19,0.03
2013-9-4,73.4,68.8,64.7,66.0,61.9,60.0,96,79,66,29.93,29.80,18,7,22,0.00
2013-9-5,71.4,66.9,62.9,66.0,61.9,55.0,92,84,75,30.11,29.88,17,8,19,0.01
2013-9-6,65.6,61.1,57.5,57.0,50.9,44.0,92,70,49,30.22,30.11,14,5,16,0.00
2013-9-7,70.2,64.2,56.8,59.0,54.3,50.0,85,71,50,30.11,29.89,16,7,24,0.00
2013-9-8,74.9,67.8,60.4,65.0,59.2,46.0,88,74,58,30.06,29.74,23,12,26,0.00
2013-9-9,64.9,60.6,57.1,54.0,49.5,43.0,85,68,52,30.25,30.07,17,6,19,0.00
2013-9-10,73.3,67.1,59.2,68.0,61.4,54.0,92,82,72,30.20,30.06,21,8,28,0.00
2013-9-11,81.8,75.2,70.1,74.0,71.0,68.0,94,87,77,30.11,30.00,16,9,21,0.00
2013-9-12,76.0,72.6,69.4,71.0,69.7,68.0,96,90,84,30.01,29.72,19,12,29,0.00
2013-9-13,74.3,70.2,65.8,69.0,67.1,62.0,97,90,76,29.72,29.57,17,7,20,0.31
2013-9-14,67.0,63.7,60.7,61.0,57.1,53.0,86,79,70,30.04,29.72,13,7,18,0.00
2013-9-15,65.0,61.0,57.2,55.0,53.0,48.0,89,75,56,30.16,30.04,12,5,16,0.00
2013-9-16,65.8,62.1,56.2,61.0,55.8,47.0,93,80,65,30.18,30.02,25,6,27,0.00
2013-9-17,56.8,54.3,48.3,51.0,45.6,41.0,90,73,59,30.38,30.18,28,15,32,0.00
2013-9-18,66.2,58.2,48.3,55.0,47.9,41.0,91,71,43,30.32,30.15,11,5,13,0.00
2013-9-19,69.0,63.7,59.7,59.0,56.1,54.0,90,77,61,30.16,30.05,17,7,17,0.00
2013-9-20,73.6,64.8,57.3,62.0,58.1,50.0,96,81,44,30.09,30.01,10,4,13,0.00
2013-9-21,74.1,66.8,57.8,67.0,62.5,57.0,97,87,66,30.05,29.77,15,6,25,0.01
2013-9-22,71.2,67.3,58.6,68.0,61.6,51.0,95,82,64,29.80,29.66,19,9,29,0.09
2013-9-23,62.8,56.5,52.3,51.0,46.4,43.0,78,69,56,29.99,29.80,19,9,24,0.00
2013-9-24,63.8,55.5,50.6,51.0,45.9,42.0,79,70,58,29.99,29.81,15,8,23,0.00
2013-9-25,61.8,57.7,49.9,51.0,49.2,47.0,89,74,64,29.97,29.88,15,5,17,0.00
2013-9-26,59.7,54.8,57.5,54.0,41.5,-99.9,84,72,68,30.09,29.96,18,-56,22,0.00
2013-9-27,61.2,59.5,56.9,56.0,54.4,53.0,89,83,77,30.25,30.09,20,11,23,0.00
2013-9-28,68.1,58.5,52.4,59.0,49.3,-99.9,95,78,63,30.30,30.23,10,-27,12,0.00
2013-9-29,63.1,59.2,52.1,58.0,53.9,50.0,92,83,67,30.24,30.09,14,6,17,0.00
2013-9-30,63.7,60.3,54.6,58.0,56.6,52.0,94,88,78,30.08,29.95,19,9,20,0.00
2013-10-1,71.8,59.9,53.9,60.0,50.2,-99.9,95,77,57,29.95,29.85,13,-28,16,0.00
2013-10-2,73.8,68.0,62.3,62.0,60.1,57.0,93,76,62,29.95,29.83,23,8,26,0.00
2013-10-3,73.4,65.7,62.1,60.0,55.2,-99.9,86,71,53,30.07,29.95,11,-6,12,0.00
2013-10-4,68.9,63.7,60.6,62.0,58.8,57.0,90,84,74,30.07,30.01,13,4,15,0.00
2013-10-5,66.2,62.7,60.0,61.0,59.3,58.0,94,89,78,30.11,30.04,10,3,10,0.40
2013-10-6,64.4,61.6,58.1,62.0,57.9,56.0,97,88,77,30.19,30.11,11,5,18,0.04
2013-10-7,73.7,69.4,65.0,70.0,67.4,63.0,95,93,87,30.11,29.87,21,10,31,0.21
2013-10-8,66.2,56.7,58.5,65.0,40.4,-99.9,96,66,55,30.33,29.89,17,-64,22,0.04
2013-10-9,59.5,54.3,56.7,51.0,39.1,-99.9,81,66,65,30.41,30.32,19,-51,25,0.00
2013-10-10,63.1,56.6,56.9,58.0,47.9,-99.9,93,83,82,30.32,30.11,21,-42,21,0.00
2013-10-11,64.2,57.8,58.0,60.0,49.7,-99.9,94,85,82,30.11,30.06,19,-40,21,0.00
2013-10-12,62.3,59.5,56.8,58.0,55.0,52.0,88,85,78,30.34,30.10,19,12,26,0.00
2013-10-13,57.7,56.1,54.3,52.0,49.1,47.0,86,77,70,30.41,30.32,18,10,23,0.00
2013-10-14,58.3,53.3,46.1,51.0,48.1,44.0,94,83,67,30.39,30.26,10,3,11,0.00
2013-10-15,61.3,55.7,48.7,55.0,51.2,47.0,97,85,67,30.27,30.16,10,4,12,0.01
2013-10-16,60.1,58.2,55.9,58.0,56.3,52.0,96,93,82,30.15,29.90,13,8,16,0.00
2013-10-17,65.8,61.4,57.4,61.0,59.1,56.0,97,92,84,29.91,29.76,15,6,19,0.00
2013-10-18,65.9,62.8,56.7,63.0,56.9,51.0,96,82,60,29.92,29.65,23,7,23,0.01
2013-10-19,62.2,58.1,52.5,55.0,47.9,44.0,92,70,54,30.00,29.77,14,4,17,0.00
2013-10-20,60.1,57.6,50.4,58.0,46.8,37.0,94,69,46,30.02,29.71,16,7,22,0.00
2013-10-21,62.1,54.7,45.2,48.0,44.4,40.0,89,70,45,30.12,30.02,14,5,18,0.00
2013-10-22,65.6,57.9,49.3,57.0,52.1,47.0,96,82,54,30.02,29.71,14,4,18,0.00
2013-10-23,55.1,50.6,45.2,46.0,41.2,37.0,87,71,58,29.79,29.57,16,7,21,0.22
2013-10-24,52.2,49.4,46.2,41.0,35.1,29.0,80,59,43,29.90,29.64,18,10,25,0.00
2013-10-25,49.4,47.5,45.0,38.0,34.0,31.0,75,60,51,30.17,29.91,17,10,25,0.00
2013-10-26,57.0,50.7,39.6,45.0,38.2,32.0,85,63,52,30.18,29.89,23,10,32,0.00
2013-10-27,56.8,52.9,48.2,46.0,37.6,33.0,77,57,47,30.08,29.83,19,10,25,0.00
2013-10-28,57.0,50.9,40.8,43.0,38.4,34.0,86,63,52,30.32,30.08,26,8,30,0.00
2013-10-29,50.6,46.8,43.5,41.0,37.7,32.0,84,71,50,30.39,30.33,15,6,17,0.00
2013-10-30,56.8,49.0,40.4,49.0,43.9,38.0,93,83,66,30.37,30.19,13,2,18,0.00
2013-10-31,64.6,57.5,46.2,61.0,54.1,44.0,96,88,76,30.24,29.89,21,6,27,0.00
2013-11-1,68.8,64.8,62.0,65.0,61.2,57.0,95,88,77,29.87,29.56,28,15,42,0.01
2013-11-2,62.9,58.0,55.5,59.0,54.7,51.0,93,88,76,29.71,29.59,14,3,16,0.06
2013-11-3,57.6,47.5,40.2,50.0,41.5,28.0,93,80,56,30.36,29.70,25,14,31,0.00
2013-11-4,42.5,40.3,37.9,34.0,31.2,29.0,80,70,61,30.69,30.36,21,12,28,0.00
2013-11-5,47.5,42.6,38.2,38.0,34.9,32.0,90,74,66,30.69,30.54,15,4,18,0.00
2013-11-6,57.1,50.6,40.8,54.0,46.4,38.0,94,86,71,30.53,30.10,12,3,17,0.00
2013-11-7,63.1,57.2,46.7,62.0,54.6,39.0,96,91,75,30.09,29.68,19,11,28,0.78
2013-11-8,48.4,44.5,40.7,39.0,30.9,25.0,75,59,48,30.11,29.81,23,13,36,0.00
2013-11-9,46.0,42.1,39.0,38.0,29.4,24.0,76,61,48,30.22,30.09,19,8,25,0.00
2013-11-10,56.1,51.6,46.3,47.0,41.7,37.0,79,69,61,30.07,29.74,28,9,33,0.05
2013-11-11,54.4,47.5,43.0,45.0,35.1,30.0,72,63,49,30.10,29.89,26,12,37,0.00
2013-11-12,55.1,40.1,30.2,47.0,32.5,21.0,96,76,57,30.19,29.89,24,12,32,0.01
2013-11-13,37.1,33.2,29.2,23.0,19.8,16.0,73,59,45,30.27,30.17,21,11,27,0.00
2013-11-14,51.3,45.8,36.5,37.0,32.9,23.0,77,62,49,30.21,30.07,26,12,31,0.00
2013-11-15,58.3,53.3,50.6,49.0,41.9,33.0,86,67,48,30.23,30.16,19,8,24,0.00
2013-11-16,58.3,51.1,42.5,47.0,41.9,33.0,95,73,45,30.33,30.22,12,3,13,0.00
2013-11-17,59.7,53.0,43.2,59.0,50.7,42.0,97,92,65,30.33,29.88,13,5,21,0.12
2013-11-18,62.2,58.9,53.8,62.0,53.0,39.0,98,82,56,29.87,29.59,26,11,33,0.03
2013-11-19,53.1,43.2,35.7,40.0,26.7,-99.9,66,54,46,30.27,29.68,24,13,31,0.00
2013-11-20,39.9,36.4,32.1,27.0,22.1,19.0,68,57,45,30.60,30.28,21,12,24,0.00
2013-11-21,44.7,40.4,34.2,38.0,32.8,26.0,87,74,59,30.62,30.41,12,3,14,0.00
2013-11-22,54.0,49.5,42.7,53.0,46.7,37.0,95,90,79,30.40,29.83,12,4,20,0.14
2013-11-23,52.5,44.8,34.7,50.0,31.1,19.0,95,61,36,29.89,29.78,23,11,36,0.00
2013-11-24,34.4,27.1,24.4,21.0,10.8,2.0,62,51,32,30.19,29.80,37,19,47,0.00
2013-11-25,40.3,27.7,21.9,32.0,11.3,2.0,77,52,29,30.38,30.20,25,10,34,0.00
2013-11-26,47.6,43.6,41.1,46.0,36.3,32.0,95,76,65,30.34,30.04,15,6,20,0.09
2013-11-27,62.0,54.1,40.5,62.0,53.2,36.0,99,96,84,30.03,29.16,37,13,43,0.92
2013-11-28,40.4,34.4,29.6,35.0,21.7,13.0,83,61,45,30.45,29.51,23,13,31,0.00
2013-11-29,35.1,31.5,29.2,20.0,16.9,11.0,62,55,46,30.73,30.45,18,8,21,0.00
2013-11-30,37.9,31.9,26.5,30.0,22.7,14.0,83,69,56,30.77,30.47,16,6,20,0.00
2013-12-1,48.9,39.4,38.2,47.0,22.6,-99.9,97,75,72,30.46,29.98,12,-131,19,0.01
2013-12-2,46.3,39.3,39.5,46.0,34.8,-99.9,100,92,90,29.98,29.90,10,-28,13,0.00
2013-12-3,47.5,41.6,38.8,40.0,38.0,36.0,96,87,64,29.94,29.80,13,7,19,0.00
2013-12-4,44.6,39.3,34.4,36.0,33.8,30.0,95,81,66,30.21,29.94,14,4,17,0.00
2013-12-5,55.9,48.4,35.3,55.0,46.6,34.0,98,93,87,30.22,29.96,14,4,18,0.00
2013-12-6,59.6,51.2,38.1,59.0,49.9,37.0,98,95,86,30.10,29.91,20,9,23,0.15
2013-12-7,40.2,32.6,34.5,37.0,14.3,-99.9,96,68,61,30.46,30.05,23,-117,23,0.08
2013-12-8,34.4,30.4,30.6,26.0,14.3,-99.9,73,62,59,30.59,30.46,17,-61,19,0.00
2013-12-9,45.2,42.1,36.9,44.0,40.7,35.0,98,95,90,30.28,29.86,24,7,29,0.40
2013-12-10,39.1,35.2,30.1,37.0,32.0,21.0,96,88,68,30.04,29.78,23,8,32,0.08
2013-12-11,33.7,31.5,29.4,26.0,20.4,-99.9,79,66,55,30.26,30.04,19,1,30,0.00
2013-12-12,32.7,26.0,23.5,20.0,12.1,4.0,73,56,40,30.27,30.11,22,10,28,0.00
2013-12-13,31.8,28.8,23.9,20.0,16.0,11.0,77,59,48,30.35,30.03,25,12,31,0.00
2013-12-14,33.4,25.3,19.1,32.0,20.1,11.0,96,81,62,30.58,30.11,25,12,26,0.00
2013-12-15,52.4,33.5,29.4,52.0,21.3,-99.9,98,81,66,30.09,29.34,24,-83,31,0.75
2013-12-16,34.8,30.2,26.1,26.0,16.0,10.0,74,56,45,30.23,29.79,21,11,31,0.00
2013-12-17,41.4,28.2,20.9,40.0,21.8,11.0,97,78,58,30.27,29.86,18,8,26,0.13
2013-12-18,35.3,26.3,27.1,30.0,2.5,-99.9,95,62,57,30.12,29.78,20,-169,26,0.00
2013-12-19,47.5,40.1,33.5,38.0,31.4,25.0,77,71,64,30.15,29.98,27,10,31,0.00
2013-12-20,54.2,43.9,34.7,50.0,32.1,-99.9,93,75,63,30.15,29.98,23,-55,31,0.00
2013-12-21,58.5,48.3,52.4,55.0,31.3,-99.9,94,74,78,30.03,29.93,21,-125,31,0.00
2013-12-22,62.0,54.9,55.2,60.0,45.1,-99.9,96,84,79,30.00,29.87,30,-59,38,0.00
2013-12-23,61.4,45.8,37.2,57.0,44.4,36.0,98,95,82,30.07,29.92,15,5,23,0.36
2013-12-24,39.6,35.0,30.8,39.0,28.5,19.0,97,78,55,30.19,29.99,19,12,23,0.16
2013-12-25,30.9,23.0,19.6,22.0,12.9,7.0,83,66,53,30.56,30.20,22,9,27,0.00
2013-12-26,40.7,29.7,22.7,38.0,11.3,-99.9,95,72,76,30.50,30.05,22,-142,26,0.16
2013-12-27,36.7,30.1,32.4,27.0,9.1,-99.9,78,59,55,30.29,30.22,15,-120,20,0.00
2013-12-28,49.1,37.2,31.8,40.0,16.1,-99.9,87,62,56,30.27,30.04,27,-127,38,0.00
2013-12-29,56.2,46.7,39.7,56.0,42.0,36.0,98,84,69,30.07,29.32,30,9,37,1.01
2013-12-30,43.3,29.9,27.4,39.0,3.2,-99.9,97,57,45,30.14,29.50,21,-185,31,0.00
2013-12-31,30.2,25.3,21.0,21.0,15.8,11.0,76,67,59,30.20,30.04,17,9,24,0.00
2014-1-1,29.4,27.5,24.8,17.0,12.5,8.0,63,54,46,30.39,30.20,24,10,30,0.00
2014-1-2,32.1,29.4,27.4,31.0,26.3,15.0,97,89,56,30.34,29.67,34,17,40,0.00